Time;durP1;ratioP1;P1;durP2;ratioP2;P2;SDS_P1;SDS_P2;PMS_P1;PMS_P2;Temp;Humidity;BMP_temperature;BMP_pressure;BME280_temperature;BME280_humidity;BME280_pressure;Samples;Min_cycle;Max_cycle;Signal;HPM_P1;HPM_P2
2022/04/26 03:36:12;;;;;;;;;;;;;;;8.40;100.00;97950.91;1671201;85;20699;-84
2022/04/26 03:38:41;;;;;;;;;;;;;;;8.43;100.00;97959.02;1670382;85;24830;-84
2022/04/26 03:41:07;;;;;;;;;;;;;;;8.40;100.00;97960.51;1667010;85;22007;-84
2022/04/26 03:43:33;;;;;;;;;;;;;;;8.42;100.00;97962.55;1670311;85;26197;-84
2022/04/26 03:45:59;;;;;;;;;;;;;;;8.45;100.00;97968.88;1672927;85;24461;-85
2022/04/26 03:48:25;;;;;;;;;;;;;;;8.40;100.00;97967.86;1671516;85;20577;-85
2022/04/26 03:50:51;;;;;;;;;;;;;;;8.36;100.00;97974.23;1668137;85;20310;-84
2022/04/26 03:53:17;;;;;;;;;;;;;;;8.33;100.00;97973.63;1670662;85;20270;-85
2022/04/26 03:55:43;;;;;;;;;;;;;;;8.28;100.00;97973.91;1669719;85;20976;-85
2022/04/26 03:58:10;;;;;;;;;;;;;;;8.21;100.00;97975.72;1666485;84;24445;-85
2022/04/26 04:00:38;;;;;;;;;;;;;;;8.18;100.00;97973.33;1668457;85;20415;-85
2022/04/26 04:03:04;;;;;;;;;;;;;;;8.15;100.00;97974.82;1670327;85;20236;-85
2022/04/26 04:05:30;;;;;;;;;;;;;;;8.12;100.00;97980.25;1670994;85;20830;-86
2022/04/26 04:07:56;;;;;;;;;;;;;;;8.10;100.00;97980.81;1670022;85;21048;-86
2022/04/26 04:10:22;;;;;;;;;;;;;;;8.07;100.00;97984.95;1666870;85;20290;-85
2022/04/26 04:12:48;;;;;;;;;;;;;;;8.04;100.00;97987.27;1666291;85;20489;-85
2022/04/26 04:15:13;;;;;;;;;;;;;;;8.04;100.00;97991.17;1670078;85;20757;-84
2022/04/26 04:17:39;;;;;;;;;;;;;;;8.03;100.00;97991.27;1656741;85;20854;-84
2022/04/26 04:20:08;;;;;;;;;;;;;;;8.01;100.00;97990.09;1666898;85;26047;-85
2022/04/26 04:22:34;;;;;;;;;;;;;;;8.05;100.00;97999.83;1672594;85;30617;-84
2022/04/26 04:25:00;;;;;;;;;;;;;;;8.07;100.00;98004.48;1677349;85;20313;-85
2022/04/26 04:27:26;;;;;;;;;;;;;;;8.06;100.00;98002.34;1668450;85;20271;-85
2022/04/26 04:29:52;;;;;;;;;;;;;;;8.11;100.00;98003.34;1671104;84;21985;-85
2022/04/26 04:32:19;;;;;;;;;;;;;;;8.16;100.00;98008.61;1674462;85;26114;-85
2022/04/26 04:34:46;;;;;;;;;;;;;;;8.21;100.00;98012.20;1669841;85;25188;-86
2022/04/26 04:37:12;;;;;;;;;;;;;;;8.23;100.00;98011.65;1670595;85;21086;-86
2022/04/26 04:39:41;;;;;;;;;;;;;;;8.27;100.00;98013.10;1666675;85;25374;-86
2022/04/26 04:42:07;;;;;;;;;;;;;;;8.29;100.00;98020.36;1670612;85;21964;-85
2022/04/26 04:44:33;;;;;;;;;;;;;;;8.34;100.00;98022.22;1671990;85;25885;-85
2022/04/26 04:47:01;;;;;;;;;;;;;;;8.31;100.00;98020.64;1671588;85;24478;-85
2022/04/26 04:49:27;;;;;;;;;;;;;;;8.31;100.00;98028.93;1671582;85;20482;-85
2022/04/26 04:51:53;;;;;;;;;;;;;;;8.33;100.00;98029.67;1671403;85;20251;-85
2022/04/26 04:54:19;;;;;;;;;;;;;;;8.33;100.00;98030.51;1673762;84;20794;-85
2022/04/26 04:56:45;;;;;;;;;;;;;;;8.35;100.00;98035.59;1668764;85;20927;-85
2022/04/26 04:59:11;;;;;;;;;;;;;;;8.36;100.00;98030.29;1671208;85;24504;-85
2022/04/26 05:01:37;;;;;;;;;;;;;;;8.43;100.00;98039.00;1670315;85;20555;-84
2022/04/26 05:04:03;;;;;;;;;;;;;;;8.39;100.00;98042.30;1673284;85;20469;-85
2022/04/26 05:06:35;;;;;;;;;;;;;;;8.39;100.00;98041.00;1669959;85;22001;-84
2022/04/26 05:09:02;;;;;;;;;;;;;;;8.37;100.00;98047.61;1672317;85;26044;-85
2022/04/26 05:11:28;;;;;;;;;;;;;;;8.42;100.00;98047.77;1667202;85;24527;-84
2022/04/26 05:13:54;;;;;;;;;;;;;;;8.47;100.00;98048.28;1673226;85;20880;-84
2022/04/26 05:16:20;;;;;;;;;;;;;;;8.49;100.00;98048.56;1673022;85;20754;-84
2022/04/26 05:18:47;;;;;;;;;;;;;;;8.55;100.00;98047.31;1674578;85;22012;-84
2022/04/26 05:21:15;;;;;;;;;;;;;;;8.64;100.00;98044.91;1677757;85;26637;-84
2022/04/26 05:26:31;;;;;;;;;;;;;;;8.74;100.00;98050.32;1670201;85;20330;-84
2022/04/26 05:28:57;;;;;;;;;;;;;;;8.75;100.00;98050.69;1670213;85;20216;-84
2022/04/26 05:31:23;;;;;;;;;;;;;;;8.85;100.00;98057.41;1686749;84;20242;-84
2022/04/26 05:33:49;;;;;;;;;;;;;;;8.91;100.00;98056.52;1689594;84;26057;-84
2022/04/26 05:36:15;;;;;;;;;;;;;;;8.93;100.00;98055.13;1690772;84;20309;-84
2022/04/26 05:38:41;;;;;;;;;;;;;;;8.97;100.00;98056.57;1682557;84;20739;-85
2022/04/26 05:41:08;;;;;;;;;;;;;;;8.99;100.00;98055.54;1660788;85;26229;-85
2022/04/26 05:43:40;;;;;;;;;;;;;;;9.05;100.00;98055.58;1655349;85;22008;-85
2022/04/26 05:46:08;;;;;;;;;;;;;;;9.10;100.00;98060.01;1661472;85;26058;-85
2022/04/26 05:48:34;;;;;;;;;;;;;;;9.15;100.00;98063.13;1639319;87;44257;-85
2022/04/26 05:51:00;;;;;;;;;;;;;;;9.21;100.00;98063.55;1662334;85;20827;-85
2022/04/26 05:53:26;;;;;;;;;;;;;;;9.21;100.00;98064.02;1667643;84;20201;-85
2022/04/26 05:55:52;;;;;;;;;;;;;;;9.25;100.00;98066.77;1665771;85;21962;-85
2022/04/26 05:58:19;;;;;;;;;;;;;;;9.25;100.00;98066.77;1665622;85;25992;-85
2022/04/26 06:00:46;;;;;;;;;;;;;;;9.25;100.00;98073.29;1666223;85;24480;-85
2022/04/26 06:03:12;;;;;;;;;;;;;;;9.24;100.00;98076.37;1665067;85;20231;-85
2022/04/26 06:05:38;;;;;;;;;;;;;;;9.24;100.00;98079.45;1663095;85;20834;-84
2022/04/26 06:08:04;;;;;;;;;;;;;;;9.19;100.00;98075.86;1665849;85;20329;-84
2022/04/26 06:10:37;;;;;;;;;;;;;;;9.15;100.00;98080.09;1663837;85;26019;-84
2022/04/26 06:13:03;;;;;;;;;;;;;;;9.13;100.00;98074.98;1666279;85;24529;-83
2022/04/26 06:15:34;;;;;;;;;;;;;;;9.20;100.00;98087.98;1664267;85;20468;-84
2022/04/26 06:18:00;;;;;;;;;;;;;;;9.25;100.00;98085.04;1661364;85;24754;-84
2022/04/26 06:20:29;;;;;;;;;;;;;;;9.31;100.00;98083.31;1659366;85;22114;-84
2022/04/26 06:23:00;;;;;;;;;;;;;;;9.36;100.00;98080.36;1661395;86;26160;-85
2022/04/26 06:25:26;;;;;;;;;;;;;;;9.40;100.00;98080.03;1661348;86;24403;-85
2022/04/26 06:27:52;;;;;;;;;;;;;;;9.40;100.00;98077.42;1665801;85;20254;-84
2022/04/26 06:30:18;;;;;;;;;;;;;;;9.38;100.00;98078.49;1662443;85;24793;-85
2022/04/26 06:32:44;;;;;;;;;;;;;;;9.41;100.00;98078.27;1656398;86;20249;-85
2022/04/26 06:35:10;;;;;;;;;;;;;;;9.60;100.00;98071.61;1654315;86;25990;-86
2022/04/26 06:37:36;;;;;;;;;;;;;;;9.71;100.00;98075.26;1633600;86;24414;-85
2022/04/26 06:40:04;;;;;;;;;;;;;;;9.77;100.00;98074.31;1651199;86;20511;-84
2022/04/26 06:42:30;;;;;;;;;;;;;;;9.72;100.00;98078.20;1652628;85;24762;-83
2022/04/26 06:44:56;;;;;;;;;;;;;;;9.65;100.00;98081.25;1648677;86;22022;-83
2022/04/26 06:47:22;;;;;;;;;;;;;;;9.57;100.00;98077.53;1657493;86;21152;-86
2022/04/26 06:49:48;;;;;;;;;;;;;;;9.63;100.00;98079.71;1652569;86;20652;-83
2022/04/26 06:52:14;;;;;;;;;;;;;;;9.65;100.00;98079.14;1646028;86;20315;-84
2022/04/26 06:54:41;;;;;;;;;;;;;;;9.60;100.00;98083.86;1649608;86;24753;-83
2022/04/26 06:57:08;;;;;;;;;;;;;;;9.62;100.00;98081.95;1651820;86;21929;-84
2022/04/26 06:59:34;;;;;;;;;;;;;;;9.72;100.00;98086.88;1646584;86;26024;-84
2022/04/26 07:02:00;;;;;;;;;;;;;;;9.78;100.00;98079.91;1655554;86;20276;-84
2022/04/26 07:04:27;;;;;;;;;;;;;;;9.87;100.00;98085.77;1649434;86;20313;-84
2022/04/26 07:06:56;;;;;;;;;;;;;;;9.93;100.00;98087.10;1650741;86;24772;-84
2022/04/26 07:09:27;;;;;;;;;;;;;;;10.02;100.00;98085.98;1650169;86;22192;-85
2022/04/26 07:11:53;;;;;;;;;;;;;;;10.12;100.00;98084.83;1654614;86;25958;-84
2022/04/26 07:14:19;;;;;;;;;;;;;;;10.26;100.00;98092.51;1653265;85;20245;-84
2022/04/26 07:16:49;;;;;;;;;;;;;;;10.36;100.00;98090.07;1650209;86;20245;-84
2022/04/26 07:19:15;;;;;;;;;;;;;;;10.42;100.00;98093.03;1654168;86;25441;-84
2022/04/26 07:21:44;;;;;;;;;;;;;;;10.44;100.00;98099.47;1632405;86;23662;-84
2022/04/26 07:24:10;;;;;;;;;;;;;;;10.45;100.00;98101.14;1651263;86;26856;-84
2022/04/26 07:26:36;;;;;;;;;;;;;;;10.45;100.00;98098.06;1652043;86;25056;-84
2022/04/26 07:29:02;;;;;;;;;;;;;;;10.43;100.00;98102.56;1643948;86;20347;-84
2022/04/26 07:31:30;;;;;;;;;;;;;;;10.39;100.00;98108.14;1651775;86;25606;-84
2022/04/26 07:36:41;;;;;;;;;;;;;;;10.36;100.00;98114.45;1661648;86;26184;-84
2022/04/26 07:39:07;;;;;;;;;;;;;;;10.37;100.00;98116.09;1661791;85;20252;-84
2022/04/26 07:41:38;;;;;;;;;;;;;;;10.38;100.00;98115.15;1666758;85;20263;-84
2022/04/26 07:44:02;;;;;;;;;;;;;;;10.37;100.00;98120.02;1660401;86;24779;-84
2022/04/26 07:46:29;;;;;;;;;;;;;;;10.46;100.00;98116.73;1661287;86;22176;-84
2022/04/26 07:48:58;;;;;;;;;;;;;;;10.48;100.00;98117.44;1661812;86;26108;-84
2022/04/26 07:51:24;;;;;;;;;;;;;;;10.47;100.00;98118.88;1664179;86;20387;-84
2022/04/26 07:53:50;;;;;;;;;;;;;;;10.48;100.00;98121.36;1662822;86;20278;-84
2022/04/26 07:56:16;;;;;;;;;;;;;;;10.46;100.00;98120.66;1645531;85;20227;-84
2022/04/26 07:58:42;;;;;;;;;;;;;;;10.52;100.00;98121.98;1651442;86;22040;-84
2022/04/26 08:01:08;;;;;;;;;;;;;;;10.59;100.00;98134.11;1653008;86;21151;-84
2022/04/26 08:03:35;;;;;;;;;;;;;;;10.60;100.00;98130.55;1657618;86;20266;-84
2022/04/26 08:06:07;;;;;;;;;;;;;;;10.63;100.00;98134.27;1655529;86;20298;-84
2022/04/26 08:08:33;;;;;;;;;;;;;;;10.64;100.00;98138.06;1651945;85;24765;-84
2022/04/26 08:11:00;;;;;;;;;;;;;;;10.71;100.00;98140.58;1640489;86;21867;-84
2022/04/26 08:13:26;;;;;;;;;;;;;;;10.79;100.00;98136.09;1648332;86;26080;-84
2022/04/26 08:15:52;;;;;;;;;;;;;;;10.84;100.00;98149.67;1651166;86;20342;-84
2022/04/26 08:18:19;;;;;;;;;;;;;;;10.79;100.00;98146.56;1649218;86;20234;-84
2022/04/26 08:20:45;;;;;;;;;;;;;;;10.79;100.00;98151.80;1650054;86;24982;-84
2022/04/26 08:23:14;;;;;;;;;;;;;;;10.81;100.00;98152.50;1648877;86;22007;-84
2022/04/26 08:28:28;;;;;;;;;;;;;;;10.80;100.00;98158.20;1648542;86;24546;-84
2022/04/26 08:30:56;;;;;;;;;;;;;;;10.91;100.00;98160.02;1639872;86;20378;-84
2022/04/26 08:33:22;;;;;;;;;;;;;;;10.94;100.00;98152.41;1649295;84;24985;-84
2022/04/26 08:35:50;;;;;;;;;;;;;;;11.06;100.00;98159.34;1643930;86;21965;-84
2022/04/26 08:38:20;;;;;;;;;;;;;;;11.11;100.00;98158.52;1641282;86;25616;-84
2022/04/26 08:40:44;;;;;;;;;;;;;;;11.17;100.00;98167.22;1646703;85;24610;-84
2022/04/26 08:43:12;;;;;;;;;;;;;;;11.21;100.00;98166.86;1646924;86;20355;-84
2022/04/26 08:45:38;;;;;;;;;;;;;;;11.30;100.00;98169.23;1649009;85;25546;-84
2022/04/26 08:51:05;;;;;;;;;;;;;;;11.42;100.00;98158.30;1640306;85;26695;-84
2022/04/26 08:53:34;;;;;;;;;;;;;;;11.51;100.00;98157.59;1643300;86;24416;-84
2022/04/26 08:56:01;;;;;;;;;;;;;;;11.53;100.00;98159.60;1643518;84;20319;-84
2022/04/26 08:58:30;;;;;;;;;;;;;;;11.56;100.00;98159.38;1641645;86;25033;-84
2022/04/26 09:01:06;;;;;;;;;;;;;;;11.62;100.00;98158.88;1647634;86;22804;-84
2022/04/26 09:03:33;;;;;;;;;;;;;;;11.70;100.00;98162.58;1650807;86;26059;-84
2022/04/26 09:06:11;;;;;;;;;;;;;;;11.88;100.00;98163.43;1653688;86;24707;-84
2022/04/26 09:08:43;;;;;;;;;;;;;;;11.97;100.00;98156.97;1646142;86;20256;-84
2022/04/26 09:11:24;;;;;;;;;;;;;;;11.99;100.00;98161.63;1644610;85;20776;-84
2022/04/26 09:13:51;;;;;;;;;;;;;;;11.99;100.00;98161.63;1653614;86;22621;-84
2022/04/26 09:16:18;;;;;;;;;;;;;;;11.94;100.00;98159.01;1653558;86;20974;-84
2022/04/26 09:18:46;;;;;;;;;;;;;;;11.89;100.00;98161.17;1653648;86;25263;-84
2022/04/26 09:21:12;;;;;;;;;;;;;;;11.91;100.00;98164.00;1636778;85;20220;-84
2022/04/26 09:23:44;;;;;;;;;;;;;;;11.97;100.00;98159.59;1656132;86;20268;-84
2022/04/26 09:26:08;;;;;;;;;;;;;;;12.03;100.00;98168.28;1649724;85;22017;-84
2022/04/26 09:28:37;;;;;;;;;;;;;;;11.98;100.00;98161.73;1643412;86;26170;-84
2022/04/26 09:31:21;;;;;;;;;;;;;;;11.91;100.00;98165.79;1654217;86;24642;-84
2022/04/26 09:33:49;;;;;;;;;;;;;;;11.82;100.00;98164.75;1654805;85;20186;-84
2022/04/26 09:36:16;;;;;;;;;;;;;;;11.80;100.00;98167.95;1650324;85;24968;-84
2022/04/26 09:38:46;;;;;;;;;;;;;;;11.79;100.00;98164.13;1648283;86;22707;-84
2022/04/26 09:41:12;;;;;;;;;;;;;;;11.79;100.00;98164.13;1649732;86;26024;-85
2022/04/26 09:43:38;;;;;;;;;;;;;;;11.75;100.00;98168.80;1647193;86;20380;-84
2022/04/26 09:46:04;;;;;;;;;;;;;;;11.80;100.00;98164.50;1648823;86;20259;-84
2022/04/26 09:48:35;;;;;;;;;;;;;;;11.77;100.00;98162.13;1646666;86;24772;-84
2022/04/26 09:51:03;;;;;;;;;;;;;;;11.72;100.00;98163.30;1649010;86;22072;-85
2022/04/26 09:53:34;;;;;;;;;;;;;;;11.75;100.00;98167.48;1645645;86;26836;-84
2022/04/26 09:56:01;;;;;;;;;;;;;;;11.84;100.00;98165.95;1646497;86;24496;-85
2022/04/26 09:58:28;;;;;;;;;;;;;;;11.92;100.00;98159.59;1663559;86;20261;-85
2022/04/26 10:00:55;;;;;;;;;;;;;;;11.89;100.00;98163.28;1635327;86;24754;-85
2022/04/26 10:03:28;;;;;;;;;;;;;;;11.93;100.00;98168.66;1657763;85;22048;-85
2022/04/26 10:05:56;;;;;;;;;;;;;;;11.93;100.00;98166.04;1657109;86;26051;-85
2022/04/26 10:08:24;;;;;;;;;;;;;;;11.92;100.00;98163.53;1657366;85;24513;-85
2022/04/26 10:10:50;;;;;;;;;;;;;;;11.92;100.00;98170.09;1661834;85;20227;-86
2022/04/26 10:13:35;;;;;;;;;;;;;;;11.87;100.00;98169.14;1658230;86;24765;-85
2022/04/26 10:16:05;;;;;;;;;;;;;;;11.89;100.00;98169.03;1650584;86;22964;-85
2022/04/26 10:18:36;;;;;;;;;;;;;;;11.93;100.00;98169.98;1647021;86;26021;-86
2022/04/26 10:21:07;;;;;;;;;;;;;;;11.96;100.00;98167.09;1651195;86;25175;-85
2022/04/26 10:23:54;;;;;;;;;;;;;;;11.95;100.00;98169.83;1644553;86;20231;-85
2022/04/26 10:26:24;;;;;;;;;;;;;;;11.90;100.00;98172.82;1658880;85;25423;-85
2022/04/26 10:28:53;;;;;;;;;;;;;;;11.86;100.00;98170.09;1657609;86;22034;-85
2022/04/26 10:31:22;;;;;;;;;;;;;;;11.86;100.00;98171.88;1659816;86;26074;-85
2022/04/26 10:33:49;;;;;;;;;;;;;;;11.85;100.00;98165.80;1604744;87;25893;-86
2022/04/26 10:36:23;;;;;;;;;;;;;;;11.86;100.00;98161.39;1658050;86;20330;-86
2022/04/26 10:39:09;;;;;;;;;;;;;;;11.82;100.00;98169.99;1662518;85;24833;-87
2022/04/26 10:41:42;;;;;;;;;;;;;;;11.79;100.00;98173.31;1648314;86;21957;-86
2022/04/26 10:44:16;;;;;;;;;;;;;;;11.75;100.00;98167.48;1648107;86;26086;-85
2022/04/26 10:46:51;;;;;;;;;;;;;;;11.69;100.00;98170.08;1648140;86;24469;-85
2022/04/26 10:49:29;;;;;;;;;;;;;;;11.67;100.00;98173.28;1636689;86;20601;-85
2022/04/26 10:51:56;;;;;;;;;;;;;;;11.66;100.00;98172.95;1660227;86;24826;-85
2022/04/26 10:54:42;;;;;;;;;;;;;;;11.77;100.00;98171.30;1659260;86;22042;-85
2022/04/26 10:57:08;;;;;;;;;;;;;;;11.74;100.00;98173.20;1631700;87;26007;-85
2022/04/26 10:59:43;;;;;;;;;;;;;;;11.78;100.00;98175.12;1643714;86;24381;-85
2022/04/26 11:02:13;;;;;;;;;;;;;;;11.78;100.00;98180.37;1649636;86;20291;-85
2022/04/26 11:04:41;;;;;;;;;;;;;;;11.77;100.00;98182.62;1641696;85;24926;-85
2022/04/26 11:07:13;;;;;;;;;;;;;;;11.82;100.00;98180.48;1660841;85;22163;-85
2022/04/26 11:09:49;;;;;;;;;;;;;;;11.81;100.00;98177.50;1653524;85;25474;-85
2022/04/26 11:12:19;;;;;;;;;;;;;;;11.76;100.00;98182.27;1652874;86;24665;-85
2022/04/26 11:14:46;;;;;;;;;;;;;;;11.78;100.00;98188.23;1646743;86;20332;-85
2022/04/26 11:17:12;;;;;;;;;;;;;;;11.81;100.00;98189.29;1646073;86;24808;-85
2022/04/26 11:19:38;;;;;;;;;;;;;;;11.81;100.00;98194.53;1664213;86;22470;-85
2022/04/26 11:22:09;;;;;;;;;;;;;;;11.75;100.00;98185.84;1649247;86;26080;-85
2022/04/26 11:30:07;;;;;;;;;;;;;;;11.68;100.00;98191.16;1650888;86;24890;-85
2022/04/26 11:32:43;;;;;;;;;;;;;;;11.68;100.00;98193.31;1647249;86;21980;-85
2022/04/26 11:35:16;;;;;;;;;;;;;;;11.72;100.00;98196.55;1631157;86;26891;-85
2022/04/26 11:37:49;;;;;;;;;;;;;;;11.70;100.00;98190.10;1628837;86;24499;-84
2022/04/26 11:40:23;;;;;;;;;;;;;;;11.71;100.00;98192.25;1628919;88;20244;-84
2022/04/26 11:42:50;;;;;;;;;;;;;;;11.77;100.00;98188.34;1628272;88;24902;-84
2022/04/26 11:45:17;;;;;;;;;;;;;;;11.86;100.00;98194.17;1630214;88;22053;-85
2022/04/26 11:47:50;;;;;;;;;;;;;;;11.87;100.00;98195.37;1630132;86;26140;-84
2022/04/26 11:50:23;;;;;;;;;;;;;;;11.84;100.00;98191.66;1634550;87;24454;-84
2022/04/26 11:52:51;;;;;;;;;;;;;;;11.84;100.00;98194.28;1645446;87;20358;-84
2022/04/26 11:55:24;;;;;;;;;;;;;;;11.88;100.00;98199.66;1630218;88;25561;-84
2022/04/26 11:57:51;;;;;;;;;;;;;;;11.82;100.00;98192.27;1631962;86;21946;-84
2022/04/26 12:00:22;;;;;;;;;;;;;;;11.81;100.00;98193.23;1643331;86;27048;-84
2022/04/26 12:02:47;;;;;;;;;;;;;;;11.80;100.00;98190.72;1629925;86;24601;-84
2022/04/26 12:05:14;;;;;;;;;;;;;;;11.83;100.00;98190.02;1631159;88;20261;-84
2022/04/26 12:07:49;;;;;;;;;;;;;;;11.84;100.00;98189.03;1635398;86;25096;-84
2022/04/26 12:10:29;;;;;;;;;;;;;;;11.71;100.00;98189.16;1607784;89;22013;-84
2022/04/26 12:12:56;;;;;;;;;;;;;;;11.61;100.00;98188.69;1629005;88;26297;-84
2022/04/26 12:15:26;;;;;;;;;;;;;;;11.60;100.00;98184.39;1635260;87;25284;-84
2022/04/26 12:17:54;;;;;;;;;;;;;;;11.62;100.00;98182.46;1629601;86;20355;-84
2022/04/26 12:20:21;;;;;;;;;;;;;;;11.74;100.00;98182.38;1620358;88;24876;-84
2022/04/26 12:22:47;;;;;;;;;;;;;;;11.80;100.00;98178.92;1629908;86;21987;-84
2022/04/26 12:25:16;;;;;;;;;;;;;;;11.78;100.00;98180.37;1642876;87;26784;-84
2022/04/26 12:27:42;;;;;;;;;;;;;;;11.78;100.00;98180.37;1630074;88;25192;-85
2022/04/26 12:30:10;;;;;;;;;;;;;;;11.73;100.00;98181.18;1634656;87;20313;-85
2022/04/26 12:32:39;;;;;;;;;;;;;;;11.65;100.00;98186.17;1629481;88;25590;-84
2022/04/26 12:35:09;;;;;;;;;;;;;;;11.64;100.00;98182.72;1654899;85;22627;-84
2022/04/26 12:37:36;;;;;;;;;;;;;;;11.70;100.00;98180.09;1668847;84;26027;-85
2022/04/26 12:40:06;;;;;;;;;;;;;;;11.68;100.00;98181.98;1669642;85;24653;-85
2022/04/26 12:42:38;;;;;;;;;;;;;;;11.73;100.00;98178.56;1660205;85;20217;-85
2022/04/26 12:45:08;;;;;;;;;;;;;;;11.81;100.00;98179.28;1668197;85;24795;-84
2022/04/26 12:50:33;;;;;;;;;;;;;;;11.88;100.00;98177.38;1664858;85;26011;-84
2022/04/26 12:53:02;;;;;;;;;;;;;;;11.91;100.00;98173.66;1666601;85;24515;-84
2022/04/26 12:55:30;;;;;;;;;;;;;;;11.92;100.00;98168.30;1670914;85;20482;-84
2022/04/26 12:57:57;;;;;;;;;;;;;;;11.92;100.00;98161.75;1671066;85;24810;-84
2022/04/26 13:00:24;;;;;;;;;;;;;;;12.04;100.00;98160.77;1665073;85;21809;-84
2022/04/26 13:02:54;;;;;;;;;;;;;;;12.27;100.00;98164.65;1677209;84;26146;-84
2022/04/26 13:05:21;;;;;;;;;;;;;;;12.41;100.00;98165.19;1674039;85;24466;-84
2022/04/26 13:07:47;;;;;;;;;;;;;;;12.54;100.00;98165.02;1668535;85;20471;-84
2022/04/26 13:10:14;;;;;;;;;;;;;;;12.65;100.00;98160.20;1671741;84;24729;-84
2022/04/26 13:12:40;;;;;;;;;;;;;;;12.69;100.00;98158.50;1670148;85;21478;-84
2022/04/26 13:15:09;;;;;;;;;;;;;;;12.68;100.00;98155.52;1671669;85;20949;-84
2022/04/26 13:17:36;;;;;;;;;;;;;;;12.68;100.00;98158.15;1673516;84;24504;-84
2022/04/26 13:20:04;;;;;;;;;;;;;;;12.62;100.00;98156.02;1668060;85;20476;-84
2022/04/26 13:22:30;;;;;;;;;;;;;;;12.66;100.00;98158.73;1672434;85;24933;-83
2022/04/26 13:24:56;;;;;;;;;;;;;;;12.70;100.00;98156.23;1669169;85;22150;-83
2022/04/26 13:27:23;;;;;;;;;;;;;;;12.79;100.00;98158.56;1670097;85;25977;-84
2022/04/26 13:29:51;;;;;;;;;;;;;;;12.86;100.00;98159.25;1672043;85;24469;-86
2022/04/26 13:32:17;;;;;;;;;;;;;;;12.85;100.00;98156.27;1673780;84;20478;-86
2022/04/26 13:34:46;;;;;;;;;;;;;;;12.80;100.00;98159.77;1661201;85;25578;-86
2022/04/26 13:37:12;;;;;;;;;;;;;;;12.83;100.00;98163.44;1641050;86;22107;-84
2022/04/26 13:39:44;;;;;;;;;;;;;;;12.86;100.00;98164.51;1645757;86;26031;-84
2022/04/26 13:42:10;;;;;;;;;;;;;;;12.83;100.00;98163.44;1646013;86;24482;-84
2022/04/26 13:44:40;;;;;;;;;;;;;;;12.82;100.00;98157.82;1651104;86;20512;-84
2022/04/26 13:47:06;;;;;;;;;;;;;;;12.67;100.00;98161.73;1649716;86;24811;-84
2022/04/26 13:49:34;;;;;;;;;;;;;;;12.58;100.00;98155.94;1647811;86;22020;-83
2022/04/26 13:52:00;;;;;;;;;;;;;;;12.58;100.00;98156.77;1640030;86;26112;-84
2022/04/26 13:54:31;;;;;;;;;;;;;;;12.56;100.00;98153.42;1649625;86;24422;-84
2022/04/26 13:56:55;;;;;;;;;;;;;;;12.51;100.00;98158.70;1652892;86;20187;-84
2022/04/26 13:59:22;;;;;;;;;;;;;;;12.39;100.00;98164.94;1643651;85;24824;-86
2022/04/26 14:01:49;;;;;;;;;;;;;;;12.40;100.00;98158.27;1650781;85;22783;-84
2022/04/26 14:04:16;;;;;;;;;;;;;;;12.37;100.00;98160.31;1647214;86;26096;-84
2022/04/26 14:06:42;;;;;;;;;;;;;;;12.23;100.00;98158.80;1643824;86;24538;-84
2022/04/26 14:09:08;;;;;;;;;;;;;;;12.16;100.00;98163.70;1631675;86;20343;-84
2022/04/26 14:11:34;;;;;;;;;;;;;;;12.17;100.00;98161.91;1646598;86;24808;-84
2022/04/26 14:22:17;;;;;;;;;;;;;;;12.03;100.00;98155.17;1627993;86;20199;-84
2022/04/26 14:24:44;;;;;;;;;;;;;;;11.98;100.00;98153.39;1650203;86;24856;-84
2022/04/26 14:27:10;;;;;;;;;;;;;;;11.90;100.00;98157.56;1643962;86;22101;-84
2022/04/26 14:29:36;;;;;;;;;;;;;;;11.79;100.00;98154.48;1645855;86;26169;-85
2022/04/26 14:32:03;;;;;;;;;;;;;;;11.75;100.00;98153.06;1641223;86;24573;-84
2022/04/26 14:34:29;;;;;;;;;;;;;;;11.65;100.00;98151.63;1643051;86;20243;-85
2022/04/26 14:36:55;;;;;;;;;;;;;;;11.59;100.00;98157.81;1656650;86;20508;-84
2022/04/26 14:39:21;;;;;;;;;;;;;;;11.51;100.00;98157.59;1612606;87;22050;-83
2022/04/26 14:41:47;;;;;;;;;;;;;;;11.54;100.00;98158.19;1613894;88;26028;-83
2022/04/26 14:44:13;;;;;;;;;;;;;;;11.54;100.00;98153.41;1609377;88;24473;-83
2022/04/26 14:46:39;;;;;;;;;;;;;;;11.54;100.00;98158.66;1619657;88;20851;-83
2022/04/26 14:49:06;;;;;;;;;;;;;;;11.51;100.00;98159.72;1618517;88;20872;-84
2022/04/26 14:51:33;;;;;;;;;;;;;;;11.56;100.00;98159.38;1614148;88;22041;-85
2022/04/26 14:53:59;;;;;;;;;;;;;;;11.62;100.00;98164.11;1614219;88;26080;-85
2022/04/26 14:56:25;;;;;;;;;;;;;;;11.71;100.00;98160.32;1608680;88;20289;-84
2022/04/26 14:58:51;;;;;;;;;;;;;;;11.76;100.00;98159.98;1578964;89;20224;-85
2022/04/26 15:01:17;;;;;;;;;;;;;;;11.77;100.00;98158.20;1617491;87;24767;-85
2022/04/26 15:03:48;;;;;;;;;;;;;;;11.86;100.00;98153.05;1612932;87;22082;-84
2022/04/26 15:06:12;;;;;;;;;;;;;;;12.01;100.00;98153.61;1609692;88;26033;-84
2022/04/26 15:11:23;;;;;;;;;;;;;;;12.18;100.00;98160.12;1596382;89;20219;-82
2022/04/26 15:16:39;;;;;;;;;;;;;;;12.38;100.00;98159.36;1580344;89;22045;-83
2022/04/26 15:19:07;;;;;;;;;;;;;;;12.72;100.00;98154.30;1617039;88;25990;-84
2022/04/26 15:21:34;;;;;;;;;;;;;;;13.18;100.00;98158.36;1616739;88;25146;-84
2022/04/26 15:24:02;;;;;;;;;;;;;;;13.35;100.00;98153.34;1614380;88;20304;-83
2022/04/26 15:26:29;;;;;;;;;;;;;;;13.23;100.00;98157.02;1614978;88;24838;-84
2022/04/26 15:28:58;;;;;;;;;;;;;;;12.99;100.00;98154.63;1618303;88;22099;-84
2022/04/26 15:31:23;;;;;;;;;;;;;;;12.88;100.00;98149.91;1613722;88;25975;-84
2022/04/26 15:33:50;;;;;;;;;;;;;;;12.85;100.00;98148.39;1615875;88;24606;-84
2022/04/26 15:36:17;;;;;;;;;;;;;;;12.73;100.00;98149.41;1657571;84;20320;-83
2022/04/26 15:38:43;;;;;;;;;;;;;;;12.70;100.00;98150.98;1665723;86;24811;-84
2022/04/26 15:41:10;;;;;;;;;;;;;;;12.58;100.00;98157.24;1665976;84;21975;-84
2022/04/26 15:43:36;;;;;;;;;;;;;;;12.55;100.00;98162.73;1661672;86;25997;-84
2022/04/26 15:46:03;;;;;;;;;;;;;;;12.54;100.00;98158.47;1654920;85;24134;-84
2022/04/26 15:48:30;;;;;;;;;;;;;;;12.49;100.00;98157.50;1664161;85;20431;-84
2022/04/26 15:50:56;;;;;;;;;;;;;;;12.42;100.00;98155.05;1654392;86;24751;-84
2022/04/26 15:53:24;;;;;;;;;;;;;;;12.24;100.00;98141.27;1663503;86;20182;-84
2022/04/26 15:55:50;;;;;;;;;;;;;;;12.23;100.00;98157.48;1661723;86;25966;-84
2022/04/26 15:58:16;;;;;;;;;;;;;;;12.29;100.00;98156.16;1661710;86;24475;-84
2022/04/26 16:00:43;;;;;;;;;;;;;;;12.36;100.00;98160.80;1664327;86;20206;-84
2022/04/26 16:03:09;;;;;;;;;;;;;;;12.52;100.00;98158.58;1659644;85;24823;-84
2022/04/26 16:05:36;;;;;;;;;;;;;;;12.53;100.00;98164.66;1661811;86;21961;-83
2022/04/26 16:08:03;;;;;;;;;;;;;;;12.46;100.00;98163.02;1661285;86;26155;-84
2022/04/26 16:21:28;;;;;;;;;;;;;;;12.04;100.00;98162.09;1659776;85;26748;-84
2022/04/26 16:23:54;;;;;;;;;;;;;;;11.93;100.00;98166.04;1663220;86;24598;-84
2022/04/26 16:26:22;;;;;;;;;;;;;;;11.84;100.00;98168.56;1660250;85;20234;-84
2022/04/26 16:28:48;;;;;;;;;;;;;;;11.75;100.00;98168.80;1659510;85;25612;-84
2022/04/26 16:31:15;;;;;;;;;;;;;;;11.64;100.00;98166.98;1658717;86;22103;-84
2022/04/26 16:33:41;;;;;;;;;;;;;;;11.59;100.00;98169.14;1658405;85;25978;-84
2022/04/26 16:36:09;;;;;;;;;;;;;;;11.56;100.00;98175.11;1645777;85;20229;-83
2022/04/26 16:38:36;;;;;;;;;;;;;;;11.50;100.00;98176.89;1638299;87;20285;-84
2022/04/26 16:41:04;;;;;;;;;;;;;;;11.43;100.00;98174.38;1658779;86;24806;-84
2022/04/26 16:43:30;;;;;;;;;;;;;;;11.36;100.00;98181.03;1648563;86;24500;-84
2022/04/26 16:45:56;;;;;;;;;;;;;;;11.32;100.00;98179.14;1649073;85;25970;-84
2022/04/26 16:48:24;;;;;;;;;;;;;;;11.27;100.00;98182.59;1662849;86;24497;-84
2022/04/26 16:50:50;;;;;;;;;;;;;;;11.24;100.00;98186.26;1632140;87;20311;-84
2022/04/26 16:53:16;;;;;;;;;;;;;;;11.23;100.00;98187.23;1656830;86;20298;-84
2022/04/26 16:55:42;;;;;;;;;;;;;;;11.22;100.00;98184.25;1661487;86;21548;-83
2022/04/26 16:58:08;;;;;;;;;;;;;;;11.21;100.00;98187.82;1660223;86;26041;-84
2022/04/26 17:00:34;;;;;;;;;;;;;;;11.18;100.00;98185.42;1655035;86;24489;-84
2022/04/26 17:03:00;;;;;;;;;;;;;;;11.16;100.00;98187.34;1633030;86;20367;-84